Terminal Aerodrome Forecast
Issued by NWS Mt. Holly, NJ

Home | Current Version | Previous Version | Text Only | Print | Product List | Glossary On
Versions: 1 2 3 4 5 6 7 8 9 10 11 12 13 14 15 16 17 18 19 20 21 22 23 24 25 26 27 28 29
000
FTUS41 KPHI 092117 AAA
TAFPHL
TAF AMD
KPHL 092117Z 0921/1024 28015G24KT P6SM BKN050
     FM092300 29011G17KT P6SM SCT050
      TEMPO 1002/1006 BKN050
     FM100900 28008KT P6SM FEW050 BKN200
     FM101700 28010G20KT P6SM BKN050
     FM102100 28011KT P6SM SKC=

USA.gov is the U.S. government's official web portal to all federal, state and local government web resources and services.